Overview Statistics Trail Chart Weather Telemetry Raw packets
 

This is the latest recevied weather packets stored in our database for station/object DH9SB-6. If no packets are shown the sender has not sent any weather packets the latest 10 day(s).

<< 1 2 3 4 5 6 >>
Time Temp. Humidity Pressure Rain* Wind** Luminosity Snow
1788176889 23.33° C 51% - 0 mm - - -
1788176264 23.33° C 51% - 0 mm - - -
1788175689 23.33° C 52% - 0 mm - - -
1788175065 22.78° C 52% - 0 mm - - -
1788174488 23.33° C 51% - 0 mm - - -
1788173864 23.33° C 52% - 0 mm - - -
1788173288 23.89° C 50% - 0 mm - - -
1788172665 23.33° C 50% - 0 mm - - -
1788172090 22.78° C 52% - 0 mm - - -
1788170889 22.78° C 53% - 0 mm - - -
1788170552 22.78° C 54% - 0 mm - - -
1788170264 22.22° C 57% - 0 mm - - -
1788169689 21.67° C 56% - - - - -
1788165419 22.78° C 63% - 0 mm - - -
1788164024 22.22° C 65% - 0 mm - - -
1788163544 21.67° C 67% - 0 mm - - -
1788162873 21.67° C 65% - 0 mm - - -
1788162441 21.67° C 70% - 0 mm - - -
1788161624 22.22° C 68% - 0 mm - - -
1788159464 21.11° C 74% - 0 mm - - -
1788158793 21.11° C 75% - 0 mm - - -
1788158408 20° C 83% - 0 mm - - -
1788155624 18.33° C 92% - - - - -
1788149048 17.78° C 92% - 0 mm - - -
1788145929 17.78° C 90% - 0 mm - - -

* Rain latest hour (hover to see other rain measurements)
** Current wind speed in m/s (hover to see current wind gust speed)